Date,TemperatureHighF,TemperatureAvgF,TemperatureLowF,DewpointHighF,DewpointAvgF,DewpointLowF,HumidityHigh,HumidityAvg,HumidityLow,PressureMaxIn,PressureMinIn,WindSpeedMaxMPH,WindSpeedAvgMPH,GustSpeedMaxMPH,PrecipitationSumIn
2013-8-1,64.4,56.0,50.9,52.2,48.9,46.2,84,77,61,29.97,29.82,10,2,10,0.00
2013-8-2,68.0,57.8,50.4,54.0,47.9,40.1,90,72,48,29.88,29.59,13,3,13,0.00
2013-8-3,65.7,58.0,52.0,44.0,40.0,36.9,59,52,43,29.79,29.56,13,6,13,0.00
2013-8-4,66.0,57.4,51.1,44.5,38.8,34.7,61,50,40,29.79,29.56,19,7,19,0.00
2013-8-5,65.5,53.7,48.7,42.8,36.3,33.1,58,52,43,29.85,29.65,16,6,16,0.00
2013-8-6,71.1,60.9,52.0,43.3,38.9,35.1,55,45,34,29.79,29.47,24,6,24,0.00
2013-8-7,62.6,58.4,54.3,47.5,43.4,37.4,76,58,42,29.68,29.53,7,1,7,0.25
2013-8-8,56.8,53.4,51.3,49.0,45.1,39.7,86,74,54,29.74,29.47,24,5,24,0.09
2013-8-9,65.8,58.0,50.0,44.8,41.5,38.3,67,55,45,29.85,29.68,12,4,12,0.00
2013-8-10,72.3,62.5,55.0,45.4,40.5,36.5,50,45,37,29.79,29.59,17,5,17,0.00
2013-8-11,70.5,60.5,50.7,46.0,41.0,36.3,59,49,37,29.82,29.59,6,2,6,0.00
2013-8-12,79.0,64.3,54.5,49.2,42.5,38.9,60,46,31,29.65,29.29,28,6,28,0.00
2013-8-13,69.1,59.1,50.2,40.0,34.8,28.9,51,41,33,29.76,29.56,18,5,18,0.00
2013-8-14,70.3,59.3,54.0,40.0,34.4,31.4,44,39,32,29.74,29.56,15,5,15,0.00
2013-8-15,62.2,58.1,52.7,34.4,32.2,29.6,48,37,34,29.94,29.56,14,4,14,0.00
2013-8-16,68.7,55.2,47.5,45.9,34.6,30.6,63,46,36,29.97,29.74,8,3,8,0.00
2013-8-17,72.7,62.3,53.4,50.1,46.3,38.3,71,57,41,29.71,29.41,25,5,25,0.00
2013-8-18,71.6,61.1,51.8,42.5,36.4,31.1,49,40,33,29.82,29.65,14,5,14,0.00
2013-8-19,71.6,62.2,55.6,41.0,34.9,31.0,39,36,33,29.68,29.47,18,7,18,0.00
2013-8-20,63.7,56.7,47.8,34.8,30.8,25.4,45,37,34,29.76,29.59,16,5,16,0.00
2013-8-21,61.0,48.0,44.2,36.2,27.3,24.5,49,44,40,29.79,29.71,11,6,11,0.00
2013-8-22,63.3,60.4,55.4,35.9,33.9,32.8,44,37,36,29.68,29.62,12,6,13,0.00
2013-8-23,68.7,61.0,54.7,42.1,37.4,34.3,47,42,36,29.71,29.53,17,7,17,0.00
2013-8-24,69.8,60.6,54.7,46.8,43.0,38.0,65,53,41,29.94,29.74,13,5,13,0.00
2013-8-25,75.2,62.5,51.3,51.3,45.3,39.1,74,56,34,30.03,29.85,15,3,15,0.00
2013-8-26,72.7,60.9,53.4,49.9,43.8,38.2,68,54,38,30.00,29.85,8,2,8,0.00
2013-8-27,72.5,60.6,53.2,49.1,46.7,43.7,75,62,41,29.94,29.79,8,1,8,0.00
2013-8-28,71.8,60.9,53.2,54.3,48.5,43.9,81,65,41,29.94,29.82,9,1,9,0.00
2013-8-29,70.9,62.3,54.3,57.5,53.0,49.5,86,72,53,30.00,29.82,11,1,11,0.00
2013-8-30,81.9,77.3,61.7,59.0,54.6,49.2,77,47,35,29.82,29.62,18,7,18,0.00